Time;durP1;ratioP1;P1;durP2;ratioP2;P2;SDS_P1;SDS_P2;PMS_P1;PMS_P2;Temp;Humidity;BMP_temperature;BMP_pressure;BME280_temperature;BME280_humidity;BME280_pressure;Samples;Min_cycle;Max_cycle;Signal;HPM_P1;HPM_P2
2022/06/26 04:14:34;;;;;;;8.48;2.40;;;18.00;99.90;;;;;;6177311;23;20055;-83
2022/06/26 04:17:01;;;;;;;3.90;1.90;;;;;;;;;;6227788;23;20008;-87
2022/06/26 04:19:29;;;;;;;3.75;1.90;;;18.00;99.90;;;;;;6233572;23;20004;-81
2022/06/26 04:21:57;;;;;;;6.13;2.00;;;;;;;;;;6228292;23;20084;-82
2022/06/26 04:24:30;;;;;;;4.32;1.73;;;;;;;;;;6203623;23;19993;-82
2022/06/26 04:26:57;;;;;;;3.85;2.10;;;18.00;99.90;;;;;;6198288;23;20060;-82
2022/06/26 04:29:24;;;;;;;3.65;1.75;;;17.60;99.90;;;;;;6196051;23;20001;-82
2022/06/26 04:31:50;;;;;;;5.82;2.15;;;18.10;99.90;;;;;;6197701;23;20002;-84
2022/06/26 04:34:18;;;;;;;6.32;1.80;;;18.00;99.90;;;;;;6197646;23;20001;-81
2022/06/26 04:36:48;;;;;;;3.28;2.00;;;18.10;99.90;;;;;;6200794;23;20057;-83
2022/06/26 04:39:14;;;;;;;3.15;1.80;;;18.20;99.90;;;;;;6202074;23;20451;-82
2022/06/26 04:41:41;;;;;;;5.35;2.33;;;18.10;99.90;;;;;;6202868;23;20077;-84
2022/06/26 04:44:12;;;;;;;5.80;2.03;;;18.10;99.90;;;;;;6199832;23;20028;-83
2022/06/26 04:46:42;;;;;;;4.80;2.13;;;16.90;99.90;;;;;;6202832;23;20021;-81
2022/06/26 04:49:08;;;;;;;5.82;1.92;;;17.80;99.90;;;;;;6177507;23;20009;-82
2022/06/26 04:51:36;;;;;;;5.30;1.88;;;18.10;99.90;;;;;;6199728;23;20097;-81
2022/06/26 04:54:08;;;;;;;5.10;2.22;;;18.20;99.90;;;;;;6202535;23;20009;-84
2022/06/26 04:56:38;;;;;;;3.88;1.80;;;16.20;99.90;;;;;;6199343;23;20005;-81
2022/06/26 04:59:07;;;;;;;8.00;1.95;;;18.40;99.90;;;;;;6197004;23;20299;-81
2022/06/26 05:01:37;;;;;;;4.05;1.95;;;18.30;99.90;;;;;;6169591;23;20005;-84
2022/06/26 05:04:03;;;;;;;;;;;18.30;99.90;;;;;;6174176;23;20038;-82
2022/06/26 05:06:46;;;;;;;3.42;1.50;;;18.40;99.90;;;;;;6194748;23;20005;-82
2022/06/26 05:09:16;;;;;;;3.00;1.35;;;18.00;99.90;;;;;;6192237;23;20008;-81
2022/06/26 05:11:47;;;;;;;;;;;17.70;99.90;;;;;;6194716;23;20256;-83
2022/06/26 05:14:13;;;;;;;3.45;1.50;;;18.70;99.90;;;;;;6194132;23;19900;-81
2022/06/26 05:16:41;;;;;;;3.05;1.50;;;18.60;99.90;;;;;;6198247;23;20038;-82
2022/06/26 05:19:09;;;;;;;3.47;1.48;;;18.70;99.90;;;;;;6199624;23;20005;-81
2022/06/26 05:21:36;;;;;;;4.75;1.80;;;16.90;99.90;;;;;;6194798;23;20104;-81
2022/06/26 05:24:03;;;;;;;4.13;1.55;;;19.30;99.90;;;;;;6195913;23;20020;-82
2022/06/26 05:27:19;;;;;;;3.83;1.60;;;18.70;99.90;;;;;;6199797;23;20001;-81
2022/06/26 05:30:00;;;;;;;4.40;1.58;;;18.50;99.90;;;;;;6205825;23;20012;-83
2022/06/26 05:32:37;;;;;;;5.18;1.80;;;18.70;99.90;;;;;;6207168;23;20005;-85
2022/06/26 05:35:08;;;;;;;3.78;1.30;;;18.70;99.90;;;;;;6209163;23;20009;-85
2022/06/26 05:37:37;;;;;;;4.50;1.70;;;;;;;;;;6184460;23;20009;-83
2022/06/26 05:40:17;;;;;;;4.65;1.48;;;18.90;99.90;;;;;;6209476;23;20032;-82
2022/06/26 05:42:44;;;;;;;4.15;1.80;;;18.70;99.90;;;;;;6206358;23;19997;-87
2022/06/26 05:45:15;;;;;;;3.70;1.50;;;18.90;99.90;;;;;;6206883;23;20011;-84
2022/06/26 05:47:50;;;;;;;;;;;18.60;99.90;;;;;;6203317;23;20005;-84
2022/06/26 05:50:21;;;;;;;6.10;1.50;;;19.60;99.90;;;;;;6203039;23;19982;-84
2022/06/26 05:52:57;;;;;;;2.22;1.48;;;19.50;99.90;;;;;;6203879;23;20007;-82
2022/06/26 05:55:38;;;;;;;3.45;1.63;;;20.30;99.90;;;;;;6204253;23;20010;-84
2022/06/26 05:58:13;;;;;;;2.30;1.67;;;20.60;99.90;;;;;;6207425;23;20010;-82
2022/06/26 06:00:40;;;;;;;3.33;1.85;;;22.20;99.90;;;;;;6207241;23;20009;-81
2022/06/26 06:03:07;;;;;;;4.68;2.40;;;22.00;99.90;;;;;;6208702;23;20069;-83
2022/06/26 06:05:39;;;;;;;4.25;2.50;;;22.20;99.90;;;;;;6205725;23;20486;-82
2022/06/26 06:08:06;;;;;;;5.35;2.58;;;22.60;99.90;;;;;;6200613;23;20017;-83
2022/06/26 06:10:34;;;;;;;2.95;1.75;;;21.00;99.90;;;;;;6197476;23;20001;-81
2022/06/26 06:13:02;;;;;;;3.20;1.40;;;22.00;99.90;;;;;;6194954;23;20005;-82
2022/06/26 06:15:28;;;;;;;2.08;1.40;;;22.10;99.90;;;;;;6193683;23;20240;-81
2022/06/26 06:17:56;;;;;;;2.10;1.20;;;22.80;99.90;;;;;;6194942;23;20040;-81
2022/06/26 06:20:24;;;;;;;3.03;1.30;;;23.10;99.90;;;;;;6194699;23;20061;-82
2022/06/26 06:22:56;;;;;;;2.30;1.20;;;22.70;99.90;;;;;;6197853;23;20013;-81
2022/06/26 06:25:30;;;;;;;4.60;1.33;;;21.50;99.90;;;;;;6204118;23;20016;-83
2022/06/26 06:27:59;;;;;;;3.53;1.23;;;22.40;99.90;;;;;;6212248;23;20070;-83
2022/06/26 06:30:27;;;;;;;3.15;1.38;;;21.80;99.90;;;;;;6203172;23;20012;-82
2022/06/26 06:33:05;;;;;;;5.53;1.50;;;21.70;99.90;;;;;;6194115;23;20416;-81
2022/06/26 06:36:08;;;;;;;2.40;1.35;;;21.50;99.90;;;;;;6197514;23;20048;-82
2022/06/26 06:39:20;;;;;;;2.58;1.30;;;21.30;99.90;;;;;;6187564;23;20462;-81
2022/06/26 06:41:44;;;;;;;3.90;1.40;;;20.90;99.90;;;;;;6199036;23;20007;-82
2022/06/26 06:44:24;;;;;;;2.65;1.70;;;21.50;99.90;;;;;;6210222;23;19995;-82
2022/06/26 06:47:16;;;;;;;;;;;;;;;;;;;;;
2022/06/26 06:52:19;;;;;;;3.50;1.85;;;21.60;99.90;;;;;;6204219;23;20466;-82
2022/06/26 06:54:50;;;;;;;2.60;1.73;;;21.60;99.90;;;;;;6231172;23;20017;-82
2022/06/26 06:57:24;;;;;;;4.85;1.90;;;21.10;99.90;;;;;;6227864;23;20024;-82
2022/06/26 06:59:52;;;;;;;5.15;2.30;;;20.40;99.90;;;;;;6225778;23;20064;-83
2022/06/26 07:02:23;;;;;;;4.30;2.33;;;21.10;99.90;;;;;;6227139;23;20000;-82
2022/06/26 07:04:56;;;;;;;6.20;2.47;;;21.00;99.90;;;;;;6223670;23;20000;-82
2022/06/26 07:07:32;;;;;;;3.95;2.13;;;20.10;99.90;;;;;;6223086;23;20040;-82
2022/06/26 07:10:09;;;;;;;4.57;2.10;;;21.40;99.90;;;;;;6225708;23;20012;-84
2022/06/26 07:12:58;;;;;;;4.70;3.15;;;21.20;99.90;;;;;;6232094;23;20004;-87
2022/06/26 07:15:49;;;;;;;4.70;2.88;;;20.40;99.90;;;;;;6188734;23;20004;-81
2022/06/26 07:19:26;;;;;;;4.53;3.00;;;21.30;99.90;;;;;;6232556;23;20036;-85
2022/06/26 07:22:00;;;;;;;;;;;;;;;;;;;;;
2022/06/26 07:24:43;;;;;;;3.92;2.50;;;21.90;99.90;;;;;;6218963;23;20024;-81
2022/06/26 07:27:13;;;;;;;5.07;2.20;;;21.70;99.90;;;;;;6222346;23;20019;-82
2022/06/26 07:29:44;;;;;;;4.22;2.05;;;20.90;99.90;;;;;;6220572;23;20000;-81
2022/06/26 07:32:19;;;;;;;3.80;2.25;;;21.00;99.90;;;;;;6221413;23;20005;-81
2022/06/26 07:35:01;;;;;;;3.03;2.10;;;21.90;99.90;;;;;;6224401;23;20001;-82
2022/06/26 07:37:34;;;;;;;3.67;2.33;;;21.70;99.90;;;;;;6229374;22;19989;-84
2022/06/26 07:40:09;;;;;;;5.53;2.45;;;21.80;99.90;;;;;;6242732;22;20013;-86
2022/06/26 07:42:40;;;;;;;4.30;2.40;;;21.60;99.90;;;;;;6243074;22;20001;-88
2022/06/26 07:45:10;;;;;;;5.18;2.25;;;21.00;99.90;;;;;;6242770;22;19992;-86
2022/06/26 07:47:41;;;;;;;3.80;1.70;;;21.60;99.90;;;;;;6242260;22;20027;-86
2022/06/26 07:50:09;;;;;;;2.60;1.80;;;20.40;99.90;;;;;;6236585;22;20174;-84
2022/06/26 07:52:48;;;;;;;3.38;1.75;;;21.90;99.90;;;;;;6223949;23;20021;-83
2022/06/26 07:55:17;;;;;;;2.17;1.40;;;23.30;99.90;;;;;;6225679;23;20039;-82
2022/06/26 07:57:56;;;;;;;2.53;1.45;;;21.80;99.90;;;;;;6230795;23;20009;-81
2022/06/26 08:00:24;;;;;;;4.10;1.40;;;21.90;99.90;;;;;;6231637;23;20004;-88
2022/06/26 08:02:56;;;;;;;5.90;1.73;;;22.00;99.90;;;;;;6203814;23;20009;-83
2022/06/26 08:05:28;;;;;;;2.15;1.45;;;21.90;99.90;;;;;;6227048;23;20028;-85
2022/06/26 08:08:11;;;;;;;1.58;1.20;;;22.00;99.90;;;;;;6228081;23;20005;-83
2022/06/26 08:10:44;;;;;;;3.33;1.50;;;20.90;99.90;;;;;;6224266;23;20015;-83
2022/06/26 08:13:19;;;;;;;2.60;1.13;;;21.50;99.90;;;;;;6221325;23;20370;-83
2022/06/26 08:16:03;;;;;;;2.28;1.30;;;22.20;99.90;;;;;;6222827;23;20483;-82
2022/06/26 08:18:44;;;;;;;2.05;1.40;;;22.50;99.90;;;;;;6174795;23;20035;-81
2022/06/26 08:23:59;;;;;;;2.70;1.50;;;22.60;99.90;;;;;;6220618;23;20067;-84
2022/06/26 08:26:49;;;;;;;3.05;1.40;;;22.70;99.90;;;;;;6220902;23;20024;-82
2022/06/26 08:29:21;;;;;;;3.22;1.35;;;22.80;99.90;;;;;;6221660;23;20431;-86
2022/06/26 08:31:55;;;;;;;3.53;1.83;;;22.30;99.90;;;;;;6222516;23;20117;-82
2022/06/26 08:34:25;;;;;;;2.75;1.25;;;23.50;99.90;;;;;;6222092;23;20392;-83
2022/06/26 08:37:48;;;;;;;3.17;1.42;;;22.90;99.90;;;;;;6198005;23;20460;-81
2022/06/26 08:40:47;;;;;;;3.13;1.23;;;23.10;99.90;;;;;;6219355;23;20047;-81
2022/06/26 08:43:59;;;;;;;3.00;1.45;;;23.00;99.90;;;;;;6190116;23;20001;-81
2022/06/26 08:46:45;;;;;;;2.53;1.55;;;23.30;99.90;;;;;;6199997;23;20432;-82
2022/06/26 08:49:21;;;;;;;2.55;1.42;;;23.10;99.90;;;;;;6224306;23;20001;-81
2022/06/26 08:52:23;;;;;;;3.58;1.73;;;22.60;99.90;;;;;;6227054;23;20068;-83
2022/06/26 08:55:31;;;;;;;4.35;2.00;;;22.60;99.90;;;;;;6228148;23;20039;-82
2022/06/26 08:58:40;;;;;;;4.68;1.80;;;22.70;99.90;;;;;;6218900;23;20035;-81
2022/06/26 09:01:15;;;;;;;3.50;1.60;;;22.40;99.90;;;;;;6234459;23;20035;-82
2022/06/26 09:04:05;;;;;;;3.13;1.65;;;22.90;99.90;;;;;;6203951;23;20000;-81
2022/06/26 09:06:45;;;;;;;3.20;1.40;;;23.10;99.90;;;;;;6229783;23;20020;-82
2022/06/26 09:09:46;;;;;;;4.72;1.90;;;23.00;99.90;;;;;;6234323;23;20001;-82
2022/06/26 09:12:13;;;;;;;3.00;1.50;;;22.80;99.90;;;;;;6235829;23;20034;-81
2022/06/26 09:14:53;;;;;;;2.60;1.60;;;22.60;99.90;;;;;;6235792;23;20011;-84
2022/06/26 09:17:27;;;;;;;2.83;1.60;;;22.50;99.90;;;;;;6235268;23;20001;-81
2022/06/26 09:20:11;;;;;;;6.45;1.63;;;22.20;99.90;;;;;;6233630;23;20443;-81
2022/06/26 09:23:01;;;;;;;4.85;2.17;;;21.90;99.90;;;;;;6233437;23;20031;-81
2022/06/26 09:25:43;;;;;;;5.28;1.50;;;22.00;99.90;;;;;;6229892;23;20031;-81
2022/06/26 09:28:35;;;;;;;3.13;1.40;;;21.90;99.90;;;;;;6237337;23;20019;-84
2022/06/26 09:31:13;;;;;;;4.25;1.50;;;21.90;99.90;;;;;;6225926;23;20031;-82
2022/06/26 09:33:45;;;;;;;3.22;1.52;;;21.60;99.90;;;;;;6233169;23;20008;-82
2022/06/26 09:36:17;;;;;;;2.83;1.73;;;21.80;99.90;;;;;;6230973;23;20051;-82
2022/06/26 09:38:55;;;;;;;2.75;1.50;;;22.20;99.90;;;;;;6231590;23;20051;-81
2022/06/26 09:41:36;;;;;;;5.22;1.92;;;21.70;99.90;;;;;;6230923;23;20000;-83
2022/06/26 09:44:04;;;;;;;2.97;1.25;;;21.80;99.90;;;;;;6206737;23;20405;-82
2022/06/26 09:46:34;;;;;;;2.85;1.45;;;22.00;99.90;;;;;;6230929;23;20001;-82
2022/06/26 09:49:19;;;;;;;4.20;1.52;;;22.10;99.90;;;;;;6230215;23;20048;-82
2022/06/26 09:51:54;;;;;;;2.03;1.30;;;;;;;;;;6240410;23;20008;-81
2022/06/26 09:54:23;;;;;;;3.55;1.40;;;;;;;;;;6234309;23;19996;-81
2022/06/26 09:56:58;;;;;;;2.77;1.60;;;21.50;99.90;;;;;;6209773;23;20008;-81
2022/06/26 09:59:24;;;;;;;4.13;1.45;;;;;;;;;;6234399;23;20007;-81
2022/06/26 10:10:34;;;;;;;2.63;1.20;;;;;;;;;;6260798;22;20024;-84
2022/06/26 10:13:05;;;;;;;2.38;1.30;;;;;;;;;;6239194;23;20023;-83
2022/06/26 10:15:38;;;;;;;2.72;1.40;;;;;;;;;;6244676;22;20022;-81
2022/06/26 10:18:13;;;;;;;1.88;1.30;;;;;;;;;;6252936;23;20004;-82
2022/06/26 10:20:40;;;;;;;2.13;1.48;;;;;;;;;;6253824;23;20107;-81
2022/06/26 10:23:06;;;;;;;2.92;1.38;;;;;;;;;;6253407;23;20000;-81
2022/06/26 10:25:32;;;;;;;2.13;1.48;;;;;;;;;;6239326;23;20092;-82
2022/06/26 10:27:59;;;;;;;2.35;1.42;;;;;;;;;;6227034;23;20012;-82
2022/06/26 10:30:28;;;;;;;4.07;1.70;;;21.20;99.90;;;;;;6203987;23;20052;-81
2022/06/26 10:33:26;;;;;;;2.42;1.60;;;21.20;99.90;;;;;;6232060;23;20001;-81
2022/06/26 10:35:54;;;;;;;3.47;1.70;;;21.30;99.90;;;;;;6162327;23;20008;-83
2022/06/26 10:38:22;;;;;;;4.63;2.17;;;21.10;99.90;;;;;;6223742;23;20396;-81
2022/06/26 10:44:06;;;;;;;3.30;2.13;;;21.10;99.90;;;;;;6219894;23;20063;-82
2022/06/26 10:46:44;;;;;;;6.50;2.55;;;21.10;99.90;;;;;;6221646;23;20004;-81
2022/06/26 10:49:10;;;;;;;3.70;2.80;;;;;;;;;;6221876;23;20004;-83
2022/06/26 10:51:40;;;;;;;4.93;3.00;;;21.00;99.90;;;;;;6222027;23;20027;-82
2022/06/26 10:54:21;;;;;;;5.20;3.08;;;20.90;99.90;;;;;;6195991;23;20020;-83
2022/06/26 10:56:47;;;;;;;4.38;3.00;;;20.90;99.90;;;;;;6222535;23;20408;-82
2022/06/26 10:59:20;;;;;;;5.90;2.80;;;21.00;99.90;;;;;;6224595;23;20004;-81
2022/06/26 11:01:46;;;;;;;3.65;2.63;;;;;;;;;;6199330;23;20004;-83
2022/06/26 11:04:12;;;;;;;3.33;2.40;;;;;;;;;;6227489;23;20008;-82
2022/06/26 11:06:42;;;;;;;4.18;2.40;;;21.00;99.90;;;;;;6230340;23;20000;-83
2022/06/26 11:09:09;;;;;;;4.75;2.50;;;;;;;;;;6230740;23;20288;-82
2022/06/26 11:11:35;;;;;;;3.42;2.40;;;;;;;;;;6221399;23;19997;-82
2022/06/26 11:14:09;;;;;;;4.38;2.78;;;20.90;99.90;;;;;;6198279;23;20336;-84
2022/06/26 11:16:35;;;;;;;4.18;2.00;;;;;;;;;;6224485;23;20008;-83
2022/06/26 11:19:06;;;;;;;8.43;2.70;;;20.90;99.90;;;;;;6228355;23;19985;-81
2022/06/26 11:21:32;;;;;;;4.38;2.30;;;21.00;99.90;;;;;;6227631;23;20040;-83
2022/06/26 11:23:58;;;;;;;4.95;2.70;;;21.00;99.90;;;;;;6225001;23;20379;-82
2022/06/26 11:26:24;;;;;;;3.45;2.42;;;;;;;;;;6222681;23;20072;-85
2022/06/26 11:28:54;;;;;;;4.18;2.20;;;21.10;99.90;;;;;;6222594;23;20047;-84
2022/06/26 11:31:22;;;;;;;3.10;1.90;;;21.10;99.90;;;;;;6224561;23;20079;-81
2022/06/26 11:33:48;;;;;;;3.53;2.50;;;;;;;;;;6196912;23;20011;-82
2022/06/26 11:36:16;;;;;;;3.72;2.08;;;21.10;99.90;;;;;;6196439;23;20020;-82
2022/06/26 11:38:55;;;;;;;4.13;2.28;;;21.00;99.90;;;;;;6193928;23;20004;-83
2022/06/26 11:41:24;;;;;;;3.65;2.90;;;21.00;99.90;;;;;;6221786;23;20067;-83
2022/06/26 11:43:55;;;;;;;3.92;2.05;;;21.10;99.90;;;;;;6194076;23;20197;-84
2022/06/26 11:46:22;;;;;;;2.70;1.90;;;21.10;99.90;;;;;;6221691;23;20340;-84
2022/06/26 11:48:50;;;;;;;4.03;1.90;;;21.30;99.90;;;;;;6222617;23;19997;-83
2022/06/26 11:51:17;;;;;;;3.20;1.83;;;;;;;;;;6222653;23;20029;-83
2022/06/26 11:53:46;;;;;;;3.60;2.17;;;21.40;99.90;;;;;;6224051;23;20004;-84
2022/06/26 11:56:21;;;;;;;4.45;2.08;;;21.40;99.90;;;;;;6223918;23;20019;-84
2022/06/26 11:58:49;;;;;;;3.33;2.03;;;21.50;99.90;;;;;;6224488;23;20012;-83
2022/06/26 12:01:16;;;;;;;7.78;4.70;;;;;;;;;;6223494;23;20000;-84
2022/06/26 12:03:48;;;;;;;3.72;2.67;;;;;;;;;;6223368;23;20003;-83
2022/06/26 12:06:37;;;;;;;2.35;1.90;;;21.70;99.90;;;;;;6224433;23;19997;-81
2022/06/26 12:09:37;;;;;;;6.22;4.15;;;21.60;99.90;;;;;;6224945;23;20008;-82
2022/06/26 12:12:12;;;;;;;4.82;2.20;;;21.60;99.90;;;;;;6134794;23;20089;-83
2022/06/26 12:14:50;;;;;;;4.75;1.85;;;21.50;99.90;;;;;;6224030;23;20012;-83
2022/06/26 12:17:25;;;;;;;4.43;2.80;;;21.50;99.90;;;;;;6194806;23;20013;-83
2022/06/26 12:19:51;;;;;;;3.75;1.95;;;21.50;99.90;;;;;;6224792;23;20001;-83
2022/06/26 12:22:31;;;;;;;2.97;2.00;;;21.60;99.90;;;;;;6229211;23;20009;-83
2022/06/26 12:24:58;;;;;;;2.92;1.90;;;;;;;;;;6239555;23;20017;-84
2022/06/26 12:27:39;;;;;;;3.03;2.10;;;21.80;99.90;;;;;;6213387;23;20004;-83
2022/06/26 12:30:29;;;;;;;2.45;1.83;;;21.80;99.90;;;;;;6239337;23;19996;-83
2022/06/26 12:32:58;;;;;;;4.10;2.00;;;21.90;99.90;;;;;;6238316;23;20012;-83
2022/06/26 12:35:26;;;;;;;5.90;3.10;;;21.80;99.90;;;;;;6238780;23;19988;-82
2022/06/26 12:37:52;;;;;;;3.63;1.90;;;;;;;;;;6214462;23;20040;-83
2022/06/26 12:40:18;;;;;;;3.75;1.77;;;;;;;;;;6236806;23;20005;-83
2022/06/26 12:42:45;;;;;;;4.88;3.30;;;;;;;;;;6232800;23;19997;-83
2022/06/26 12:45:37;;;;;;;3.95;2.00;;;;;;;;;;6205474;23;20077;-81
2022/06/26 12:51:02;;;;;;;2.90;2.40;;;;;;;;;;6220961;23;20062;-82
2022/06/26 12:53:28;;;;;;;4.20;2.30;;;;;;;;;;6225667;23;19997;-81
2022/06/26 12:55:56;;;;;;;3.10;2.30;;;;;;;;;;6198179;23;20040;-80
2022/06/26 12:58:22;;;;;;;3.28;2.20;;;;;;;;;;6197372;23;20005;-79
2022/06/26 13:00:48;;;;;;;4.13;2.90;;;;;;;;;;6223111;23;20005;-80
2022/06/26 13:03:14;;;;;;;2.78;1.98;;;;;;;;;;6197271;23;20007;-83
2022/06/26 13:05:40;;;;;;;4.82;2.30;;;21.30;99.90;;;;;;6198201;23;20005;-80
2022/06/26 13:08:06;;;;;;;3.47;2.50;;;;;;;;;;6196725;23;20008;-79
2022/06/26 13:10:32;;;;;;;2.67;2.10;;;;;;;;;;6197179;23;20059;-81
2022/06/26 13:12:58;;;;;;;3.17;2.42;;;;;;;;;;6223820;23;19997;-80
2022/06/26 13:15:35;;;;;;;3.90;2.30;;;21.50;99.90;;;;;;6202492;23;20020;-82
2022/06/26 13:18:01;;;;;;;4.03;2.35;;;21.60;99.90;;;;;;6220584;23;20229;-80
2022/06/26 13:20:27;;;;;;;3.03;2.22;;;;;;;;;;6226118;23;20011;-81
2022/06/26 13:22:53;;;;;;;2.80;2.33;;;21.80;99.90;;;;;;6197275;23;20035;-86
2022/06/26 13:25:19;;;;;;;3.72;2.70;;;;;;;;;;6197734;23;20094;-80
2022/06/26 13:27:51;;;;;;;3.58;2.78;;;;;;;;;;6221862;23;20019;-86
2022/06/26 13:30:18;;;;;;;5.13;2.83;;;22.00;99.90;;;;;;6221458;23;20402;-80
2022/06/26 13:32:43;;;;;;;4.18;3.03;;;22.00;99.90;;;;;;6198036;23;20005;-84
2022/06/26 13:35:09;;;;;;;4.97;3.78;;;22.00;99.90;;;;;;6200599;23;20001;-81
2022/06/26 13:37:36;;;;;;;5.65;3.60;;;21.90;99.90;;;;;;6199796;23;20005;-81
2022/06/26 13:40:02;;;;;;;4.43;3.58;;;21.90;99.90;;;;;;6197734;23;20005;-80
2022/06/26 13:42:28;;;;;;;4.35;3.72;;;;;;;;;;6197607;23;20008;-83
2022/06/26 13:44:54;;;;;;;5.40;3.53;;;22.00;99.90;;;;;;6197743;23;20315;-84
2022/06/26 13:47:21;;;;;;;5.10;3.70;;;;;;;;;;6197815;23;20047;-82
2022/06/26 13:49:47;;;;;;;6.65;3.70;;;;;;;;;;6224460;23;20004;-80
2022/06/26 13:52:14;;;;;;;8.88;5.93;;;;;;;;;;6195759;23;19996;-81
2022/06/26 13:54:41;;;;;;;6.72;3.70;;;21.70;99.90;;;;;;6224248;23;20005;-82
2022/06/26 13:57:07;;;;;;;5.00;3.45;;;;;;;;;;6223896;23;20005;-82
2022/06/26 13:59:34;;;;;;;3.75;3.00;;;;;;;;;;6223787;23;20034;-84
2022/06/26 14:02:01;;;;;;;4.63;3.50;;;;;;;;;;6224697;23;20005;-81
2022/06/26 14:04:28;;;;;;;4.28;3.40;;;;;;;;;;6224145;23;20076;-81
2022/06/26 14:06:54;;;;;;;4.30;3.53;;;;;;;;;;6223207;23;20088;-81
2022/06/26 14:09:20;;;;;;;4.05;3.30;;;;;;;;;;6222030;23;20001;-84
2022/06/26 14:11:46;;;;;;;4.25;3.20;;;;;;;;;;6225702;23;20001;-84
2022/06/26 14:14:13;;;;;;;4.47;3.90;;;;;;;;;;6208597;23;20000;-86
2022/06/26 14:16:39;;;;;;;6.68;3.88;;;;;;;;;;6232821;23;20008;-83
2022/06/26 14:19:06;;;;;;;4.85;4.35;;;21.40;99.90;;;;;;6206681;23;20008;-83
2022/06/26 14:21:32;;;;;;;5.80;4.70;;;21.30;99.90;;;;;;6204948;23;20001;-81
2022/06/26 14:26:42;;;;;;;4.50;4.03;;;21.20;99.90;;;;;;6225922;23;20015;-80
2022/06/26 14:29:09;;;;;;;5.13;4.63;;;21.20;99.90;;;;;;6199557;23;20400;-80
2022/06/26 14:31:35;;;;;;;5.07;3.90;;;21.20;99.90;;;;;;6224537;23;19997;-81
2022/06/26 14:34:03;;;;;;;5.10;3.92;;;21.20;99.90;;;;;;6197300;23;20001;-80
2022/06/26 14:36:30;;;;;;;4.22;3.40;;;21.00;99.90;;;;;;6198026;23;20000;-83
2022/06/26 14:38:56;;;;;;;6.80;4.60;;;21.00;99.90;;;;;;6223642;23;20022;-81
2022/06/26 14:41:22;;;;;;;5.05;3.85;;;;;;;;;;6195794;23;20000;-80
2022/06/26 14:43:48;;;;;;;4.00;3.38;;;;;;;;;;6223347;23;20526;-86
2022/06/26 14:46:14;;;;;;;5.45;3.17;;;;;;;;;;6217409;23;20001;-82
2022/06/26 14:48:40;;;;;;;6.78;4.00;;;;;;;;;;6186798;23;20020;-80
2022/06/26 14:51:06;;;;;;;4.35;3.35;;;;;;;;;;6215447;23;20004;-79
2022/06/26 14:53:33;;;;;;;4.97;3.30;;;;;;;;;;6189196;23;20027;-79
2022/06/26 14:55:59;;;;;;;4.78;3.95;;;;;;;;;;6191024;23;20005;-79
2022/06/26 14:58:25;;;;;;;5.68;3.65;;;;;;;;;;6189838;23;20004;-80
2022/06/26 15:00:52;;;;;;;5.10;3.95;;;21.30;99.90;;;;;;6188865;23;20012;-83
2022/06/26 15:03:18;;;;;;;6.70;4.60;;;;;;;;;;6190234;23;20059;-80
2022/06/26 15:05:44;;;;;;;7.55;4.80;;;21.30;99.90;;;;;;6188747;23;20011;-81
2022/06/26 15:08:09;;;;;;;6.72;4.80;;;22.10;99.90;;;;;;6163107;23;20100;-80
2022/06/26 15:10:35;;;;;;;35.28;16.88;;;21.50;99.90;;;;;;6214897;23;20027;-79
2022/06/26 15:13:01;;;;;;;33.00;14.60;;;21.50;99.90;;;;;;6189219;23;20373;-79
2022/06/26 15:15:27;;;;;;;12.95;6.32;;;21.50;99.90;;;;;;6188381;23;20064;-80
2022/06/26 15:17:53;;;;;;;6.05;4.35;;;21.50;99.90;;;;;;6190541;23;20035;-81
2022/06/26 15:20:19;;;;;;;5.55;3.40;;;21.50;99.90;;;;;;6190898;23;20000;-80
2022/06/26 15:22:44;;;;;;;20.35;8.80;;;21.50;99.90;;;;;;6191301;23;20154;-80
2022/06/26 15:25:10;;;;;;;7.15;3.40;;;21.60;99.90;;;;;;6192042;23;20004;-81
2022/06/26 15:27:36;;;;;;;4.95;2.95;;;21.60;99.90;;;;;;6202465;23;20012;-84
2022/06/26 15:30:02;;;;;;;4.40;3.40;;;;;;;;;;6206628;23;20020;-82
2022/06/26 15:32:29;;;;;;;4.82;3.20;;;21.70;99.90;;;;;;6233215;23;20044;-88
2022/06/26 15:34:55;;;;;;;3.85;2.70;;;;;;;;;;6235250;23;20000;-82
2022/06/26 15:37:21;;;;;;;3.10;2.75;;;21.90;99.90;;;;;;6209344;23;20004;-86
2022/06/26 15:39:47;;;;;;;4.65;2.67;;;21.90;99.90;;;;;;6209100;23;20011;-87
2022/06/26 15:42:13;;;;;;;4.63;3.22;;;22.00;99.90;;;;;;6209675;23;20009;-87
2022/06/26 15:44:39;;;;;;;3.42;2.72;;;22.20;99.90;;;;;;6211875;23;20000;-83
2022/06/26 15:47:05;;;;;;;4.18;3.58;;;22.10;99.90;;;;;;6210077;23;20008;-88
2022/06/26 15:49:31;;;;;;;22.30;11.32;;;22.10;99.90;;;;;;6211081;23;20031;-86
2022/06/26 15:51:57;;;;;;;5.85;3.53;;;22.10;99.90;;;;;;6211092;23;20008;-82
2022/06/26 15:54:23;;;;;;;4.60;2.80;;;;;;;;;;6211201;23;20398;-83
2022/06/26 15:56:49;;;;;;;50.75;33.17;;;22.20;99.90;;;;;;6210976;23;20024;-88
2022/06/26 15:59:14;;;;;;;5.55;4.00;;;22.20;99.90;;;;;;6209501;23;20005;-85
2022/06/26 16:01:40;;;;;;;3.58;2.10;;;22.20;99.90;;;;;;6207875;23;20064;-90
2022/06/26 16:04:06;;;;;;;7.57;4.75;;;22.20;99.90;;;;;;6210238;23;19996;-85
2022/06/26 16:06:31;;;;;;;7.53;3.70;;;22.30;99.90;;;;;;6203709;23;20011;-83
2022/06/26 16:09:17;;;;;;;5.30;3.10;;;22.30;99.90;;;;;;6194031;23;20008;-81
2022/06/26 16:11:43;;;;;;;3.38;2.30;;;22.20;99.90;;;;;;6212561;23;20054;-87
2022/06/26 16:14:09;;;;;;;9.85;5.05;;;22.30;99.90;;;;;;6213778;23;20037;-89
2022/06/26 16:16:35;;;;;;;8.35;4.63;;;;;;;;;;6195667;23;20380;-90
2022/06/26 16:19:01;;;;;;;5.07;2.65;;;;;;;;;;6193689;23;20027;-90
2022/06/26 16:21:27;;;;;;;4.22;3.00;;;;;;;;;;6194687;23;20005;-87
2022/06/26 16:26:38;;;;;;;6.85;3.67;;;;;;;;;;6222087;23;20474;-88
2022/06/26 16:29:04;;;;;;;3.75;2.40;;;;;;;;;;6219040;23;20501;-87
2022/06/26 16:31:31;;;;;;;5.40;3.47;;;22.00;99.90;;;;;;6220714;23;20009;-87
2022/06/26 16:33:58;;;;;;;3.63;2.92;;;21.90;99.90;;;;;;6220188;23;20112;-88
2022/06/26 16:36:24;;;;;;;3.05;2.47;;;;;;;;;;6220647;23;20052;-89
2022/06/26 16:38:51;;;;;;;2.95;2.22;;;21.80;99.90;;;;;;6221960;23;20005;-88
2022/06/26 16:41:18;;;;;;;13.73;7.10;;;;;;;;;;6221999;23;20055;-90
2022/06/26 16:43:44;;;;;;;3.33;2.17;;;;;;;;;;6222294;23;20005;-87
2022/06/26 16:46:10;;;;;;;3.50;2.40;;;;;;;;;;6220505;23;20013;-89
2022/06/26 16:48:36;;;;;;;3.35;2.65;;;;;;;;;;6219984;23;20515;-88
2022/06/26 16:51:03;;;;;;;11.48;4.90;;;;;;;;;;6222594;23;20028;-87
2022/06/26 16:53:29;;;;;;;3.10;2.00;;;;;;;;;;6223986;23;20004;-88
2022/06/26 16:55:55;;;;;;;4.93;2.33;;;;;;;;;;6223075;23;20012;-87
2022/06/26 16:58:26;;;;;;;9.10;5.05;;;;;;;;;;6223050;23;20009;-87
2022/06/26 17:00:52;;;;;;;4.65;2.50;;;;;;;;;;6217129;23;20000;-87
2022/06/26 17:03:18;;;;;;;4.85;2.63;;;;;;;;;;6217981;23;20008;-88
2022/06/26 17:05:44;;;;;;;4.45;2.53;;;;;;;;;;6220111;23;20138;-88
2022/06/26 17:08:10;;;;;;;7.50;5.00;;;;;;;;;;6222751;23;20008;-89
2022/06/26 17:10:36;;;;;;;44.08;21.75;;;;;;;;;;6220603;23;20024;-89
2022/06/26 17:13:04;;;;;;;14.40;8.43;;;;;;;;;;6222201;23;19996;-88
2022/06/26 17:15:30;;;;;;;6.05;3.80;;;;;;;;;;6224434;23;20005;-87
2022/06/26 17:17:57;;;;;;;23.92;11.35;;;;;;;;;;6225021;23;20024;-87
2022/06/26 17:20:23;;;;;;;5.28;3.40;;;;;;;;;;6223533;23;20009;-88
2022/06/26 17:22:50;;;;;;;2.72;2.20;;;;;;;;;;6224500;23;20079;-87
2022/06/26 17:25:16;;;;;;;4.30;2.10;;;;;;;;;;6224035;23;20009;-89
2022/06/26 17:27:42;;;;;;;3.63;2.08;;;;;;;;;;6220680;23;20012;-89
2022/06/26 17:30:11;;;;;;;2.65;2.15;;;22.00;99.90;;;;;;6220182;23;20019;-89
2022/06/26 17:32:37;;;;;;;3.40;2.22;;;;;;;;;;6225646;23;20004;-89
2022/06/26 17:35:03;;;;;;;3.15;2.20;;;;;;;;;;6221529;23;20075;-88
2022/06/26 17:37:29;;;;;;;5.55;3.40;;;;;;;;;;6226501;23;20005;-87
2022/06/26 17:39:55;;;;;;;4.20;1.95;;;;;;;;;;6226927;23;20009;-87
2022/06/26 17:42:21;;;;;;;5.60;2.70;;;;;;;;;;6223349;23;20060;-89
2022/06/26 17:44:48;;;;;;;13.60;5.70;;;;;;;;;;6221471;23;20005;-87
2022/06/26 17:49:59;;;;;;;8.10;5.63;;;;;;;;;;6224575;23;20356;-89
2022/06/26 17:52:25;;;;;;;11.23;7.38;;;;;;;;;;6225214;23;20045;-90
2022/06/26 17:54:51;;;;;;;20.33;11.82;;;;;;;;;;6217839;23;20011;-88
2022/06/26 17:57:17;;;;;;;5.60;3.95;;;;;;;;;;6220498;23;20040;-88
2022/06/26 17:59:43;;;;;;;5.00;2.40;;;;;;;;;;6222781;23;20004;-87
2022/06/26 18:02:10;;;;;;;4.43;2.70;;;;;;;;;;6221790;23;20054;-86
2022/06/26 18:04:36;;;;;;;6.57;3.78;;;;;;;;;;6225245;23;20056;-88
2022/06/26 18:07:02;;;;;;;4.18;2.58;;;;;;;;;;6221303;23;20015;-88
2022/06/26 18:09:30;;;;;;;3.05;2.10;;;;;;;;;;6224729;23;20001;-86
2022/06/26 18:11:56;;;;;;;3.10;2.20;;;;;;;;;;6220939;23;20068;-87
2022/06/26 18:14:22;;;;;;;5.60;3.95;;;;;;;;;;6223866;23;19996;-87
2022/06/26 18:16:49;;;;;;;5.85;2.70;;;;;;;;;;6242926;23;20055;-85
2022/06/26 18:19:17;;;;;;;4.43;2.22;;;;;;;;;;6251106;23;20240;-87
2022/06/26 18:21:43;;;;;;;5.95;3.50;;;;;;;;;;6224423;23;20020;-88
2022/06/26 18:24:09;;;;;;;3.65;1.88;;;;;;;;;;6223040;23;20011;-86
2022/06/26 18:26:35;;;;;;;3.30;2.30;;;;;;;;;;6226571;23;20004;-88
2022/06/26 18:29:01;;;;;;;3.15;2.17;;;;;;;;;;6224435;23;20008;-88
2022/06/26 18:31:27;;;;;;;4.78;2.85;;;;;;;;;;6253202;23;20008;-89